Aeroporto :
LOGIN :

Iscrizione | Disclaimer

   EN    FR    IT 

 










Sommario :    VFR   VFR Marginale   IFR   IFR Intensivo   IFR Molto Intensivo
Visibilità : 
Base nubi : 
>= 8 km
>= 3000ft
5 / 8 km
1000 / 3000 ft
1500m / 5 km
500 / 1000 ft
800 / 1500m
200 / 500 ft
< 800m
< 200 ft
Simboli :   Temporali  Nebbia  Neve Forte  Precipitazioni Forti  Vento > 20 kt
SIGMETs :   Varie  Temporali  Ghiacco  Turbolenza  Onda orograficha  Ceneri Vulcaniche






- Altitudine del aeroporto : 545 ft
- Codice IATA : PZY


LZPP - Piešťany

ULTIMO METAR :
  • 231900Z 13015KT 9999 BKN045 10/07 Q1000

METARs OBSOLETI :
  • 231830Z 13013KT 9999 BKN045 10/07 Q1000
  • 231800Z 13015KT 9999 -RA FEW010 BKN045 09/07 Q1001
  • 231730Z 12015KT 9999 -RA FEW010 OVC045 09/07 Q1001
  • 231700Z 13014KT 9999 -RA FEW010 OVC045 09/07 Q1001
  • 231630Z 13010KT 9999 -RA FEW010 BKN045 09/07 Q1001
  • 231600Z 12008KT 9999 -RA FEW010 BKN045 09/07 Q1002
  • 231530Z 11008KT 060V140 9999 -RA FEW010 BKN035 09/07 Q1002
  • 231500Z 14004KT 100V210 9999 -RA FEW010 BKN035 09/07 Q1002
  • 231430Z 14006KT 9999 -RA FEW010 BKN035 09/07 Q1002

TAF TAF LZPP
Valido dal 23 a 18 ore il 24 a 03 ore UTC


231715Z 2318/2403 13009KT 9999 -RA FEW010 BKN030
TEMPO 2318/2322 5000 RA BKN008 OVC020
TEMPO 2318/2403 15015G25KT



MetMap, La meteo Aeronautica in un colpo d'occhio ! - Copyright ORBIFLY Dicembre 2007 - Disclaimer

ORBIFLY MET'MAP TEAM :

Programmazione e sviluppo : Alexandra Zaïnal
Concezione : Baudouin d'Aumeries
Supporto tecnico e logistico : Manuel Goepfert
Aiuto : Marc-Olivier Méhu
Aiuto per la traduzione : Arnaldo La Scala




FONTI E CREDITI :

   NOAA